VLG681H LEMH-LEBL
Flight info
| Callsign | VLG681H |
|---|---|
| Flight time | 0h 30m |
| Altitude | 18000 |
| Route | LUNIK Q255 OSTUR |
| Aircraft | A20N/M-SDFGHILORVWXY/LB1 |
Departure
| Time | 2026-04-10 12:16 |
|---|---|
| Airport | Menorca Airport (LEMH) |
Arrival
| Time | 2026-04-10 12:46 |
|---|---|
| Airport | Josep Tarradellas Barcelona-El Prat Airport (LEBL) |
| Time | Latitude | Longitude | Altitude | Speed | Heading |
|---|---|---|---|---|---|
| 2026-04-10 12:01 | 39.86424 | 4.22398 | 272 ft | 0 kts | 99° |
| 2026-04-10 12:07 | 39.86425 | 4.22397 | 273 ft | 1 kts | 99° |
| 2026-04-10 12:07 | 39.86427 | 4.22378 | 273 ft | 2 kts | 99° |
| 2026-04-10 12:08 | 39.86430 | 4.22359 | 273 ft | 2 kts | 99° |
| 2026-04-10 12:08 | 39.86433 | 4.22339 | 274 ft | 2 kts | 118° |
| 2026-04-10 12:08 | 39.86442 | 4.22324 | 274 ft | 2 kts | 144° |
| 2026-04-10 12:08 | 39.86456 | 4.22316 | 275 ft | 2 kts | 171° |
| 2026-04-10 12:09 | 39.86465 | 4.22316 | 275 ft | 0 kts | 187° |
| 2026-04-10 12:09 | 39.86472 | 4.22317 | 275 ft | 0 kts | 189° |
| 2026-04-10 12:11 | 39.86469 | 4.22317 | 275 ft | 1 kts | 187° |
| 2026-04-10 12:11 | 39.86430 | 4.22310 | 274 ft | 8 kts | 188° |
| 2026-04-10 12:11 | 39.86360 | 4.22295 | 273 ft | 11 kts | 189° |
| 2026-04-10 12:12 | 39.86282 | 4.22279 | 274 ft | 11 kts | 189° |
| 2026-04-10 12:12 | 39.86203 | 4.22260 | 274 ft | 12 kts | 202° |
| 2026-04-10 12:12 | 39.86187 | 4.22173 | 275 ft | 10 kts | 280° |
| 2026-04-10 12:12 | 39.86179 | 4.22093 | 278 ft | 7 kts | 220° |
| 2026-04-10 12:13 | 39.86124 | 4.22075 | 278 ft | 8 kts | 189° |
| 2026-04-10 12:13 | 39.86051 | 4.22061 | 279 ft | 12 kts | 188° |
| 2026-04-10 12:13 | 39.85948 | 4.22040 | 280 ft | 16 kts | 189° |
| 2026-04-10 12:13 | 39.85817 | 4.22013 | 278 ft | 21 kts | 189° |
| 2026-04-10 12:14 | 39.85654 | 4.21980 | 275 ft | 25 kts | 188° |
| 2026-04-10 12:14 | 39.85478 | 4.21944 | 272 ft | 25 kts | 188° |
| 2026-04-10 12:14 | 39.85304 | 4.21909 | 268 ft | 25 kts | 191° |
| 2026-04-10 12:14 | 39.85148 | 4.21872 | 265 ft | 13 kts | 207° |
| 2026-04-10 12:15 | 39.85132 | 4.21772 | 265 ft | 12 kts | 280° |
| 2026-04-10 12:15 | 39.85152 | 4.21662 | 265 ft | 12 kts | 308° |
| 2026-04-10 12:15 | 39.85249 | 4.21657 | 267 ft | 25 kts | 9° |
| 2026-04-10 12:15 | 39.85722 | 4.21753 | 280 ft | 108 kts | 8° |
| 2026-04-10 12:16 | 39.86698 | 4.21957 | 335 ft | 169 kts | 7° |
| 2026-04-10 12:16 | 39.87849 | 4.22189 | 1067 ft | 170 kts | 9° |
| 2026-04-10 12:16 | 39.89038 | 4.22419 | 1828 ft | 178 kts | 10° |
| 2026-04-10 12:16 | 39.90291 | 4.22678 | 2404 ft | 193 kts | 11° |
| 2026-04-10 12:17 | 39.91687 | 4.22973 | 2948 ft | 210 kts | 11° |
| 2026-04-10 12:17 | 39.93217 | 4.23102 | 3368 ft | 237 kts | 349° |
| 2026-04-10 12:17 | 39.94688 | 4.22024 | 3922 ft | 258 kts | 313° |
| 2026-04-10 12:17 | 39.95781 | 4.20106 | 4711 ft | 269 kts | 304° |
| 2026-04-10 12:18 | 39.96830 | 4.18089 | 5698 ft | 271 kts | 304° |
| 2026-04-10 12:18 | 39.97914 | 4.16108 | 6730 ft | 271 kts | 306° |
| 2026-04-10 12:18 | 39.99046 | 4.14132 | 7718 ft | 273 kts | 307° |
| 2026-04-10 12:18 | 40.00200 | 4.12191 | 8661 ft | 275 kts | 308° |
| 2026-04-10 12:19 | 40.01390 | 4.10237 | 9608 ft | 276 kts | 309° |
| 2026-04-10 12:19 | 40.02605 | 4.08271 | 10487 ft | 280 kts | 309° |
| 2026-04-10 12:19 | 40.03874 | 4.06240 | 11044 ft | 295 kts | 309° |
| 2026-04-10 12:19 | 40.05203 | 4.04121 | 11514 ft | 311 kts | 309° |
| 2026-04-10 12:20 | 40.06589 | 4.01915 | 12286 ft | 317 kts | 309° |
| 2026-04-10 12:20 | 40.07994 | 3.99680 | 13126 ft | 320 kts | 309° |
| 2026-04-10 12:20 | 40.09427 | 3.97403 | 13895 ft | 324 kts | 309° |
| 2026-04-10 12:20 | 40.10855 | 3.95141 | 14741 ft | 326 kts | 309° |
| 2026-04-10 12:21 | 40.12317 | 3.92839 | 15562 ft | 328 kts | 309° |
| 2026-04-10 12:21 | 40.13775 | 3.90540 | 16349 ft | 331 kts | 309° |
| 2026-04-10 12:21 | 40.15243 | 3.88214 | 17100 ft | 334 kts | 309° |
| 2026-04-10 12:21 | 40.16734 | 3.85845 | 17692 ft | 338 kts | 309° |
| 2026-04-10 12:22 | 40.18238 | 3.83450 | 18027 ft | 340 kts | 309° |
| 2026-04-10 12:22 | 40.19738 | 3.81057 | 18058 ft | 340 kts | 309° |
| 2026-04-10 12:22 | 40.21231 | 3.78673 | 18070 ft | 340 kts | 309° |
| 2026-04-10 12:22 | 40.22752 | 3.76241 | 18085 ft | 341 kts | 309° |
| 2026-04-10 12:23 | 40.24241 | 3.73859 | 18059 ft | 341 kts | 309° |
| 2026-04-10 12:23 | 40.25747 | 3.71449 | 18070 ft | 340 kts | 309° |
| 2026-04-10 12:23 | 40.27260 | 3.69025 | 18078 ft | 341 kts | 309° |
| 2026-04-10 12:23 | 40.28754 | 3.66630 | 18075 ft | 341 kts | 309° |
| 2026-04-10 12:24 | 40.30256 | 3.64221 | 18073 ft | 340 kts | 309° |
| 2026-04-10 12:24 | 40.31764 | 3.61802 | 18061 ft | 340 kts | 309° |
| 2026-04-10 12:24 | 40.33268 | 3.59386 | 18058 ft | 340 kts | 309° |
| 2026-04-10 12:24 | 40.34761 | 3.56983 | 18056 ft | 340 kts | 309° |
| 2026-04-10 12:25 | 40.36258 | 3.54575 | 18080 ft | 340 kts | 309° |
| 2026-04-10 12:25 | 40.37760 | 3.52155 | 18079 ft | 341 kts | 309° |
| 2026-04-10 12:25 | 40.39251 | 3.49751 | 18060 ft | 341 kts | 309° |
| 2026-04-10 12:25 | 40.40741 | 3.47346 | 18071 ft | 341 kts | 309° |
| 2026-04-10 12:26 | 40.42245 | 3.44918 | 18067 ft | 341 kts | 309° |
| 2026-04-10 12:26 | 40.43743 | 3.42496 | 18066 ft | 341 kts | 309° |
| 2026-04-10 12:26 | 40.45261 | 3.40042 | 18081 ft | 341 kts | 309° |
| 2026-04-10 12:26 | 40.46749 | 3.37634 | 18067 ft | 341 kts | 309° |
| 2026-04-10 12:27 | 40.48253 | 3.35199 | 18054 ft | 341 kts | 309° |
| 2026-04-10 12:27 | 40.49763 | 3.32744 | 18078 ft | 342 kts | 308° |
| 2026-04-10 12:27 | 40.51265 | 3.30297 | 18072 ft | 341 kts | 308° |
| 2026-04-10 12:27 | 40.52748 | 3.27882 | 18062 ft | 341 kts | 308° |
| 2026-04-10 12:28 | 40.54347 | 3.25569 | 18048 ft | 342 kts | 320° |
| 2026-04-10 12:28 | 40.56321 | 3.23797 | 18058 ft | 343 kts | 328° |
| 2026-04-10 12:28 | 40.58362 | 3.22213 | 18064 ft | 343 kts | 328° |
| 2026-04-10 12:28 | 40.60426 | 3.20613 | 18069 ft | 343 kts | 328° |
| 2026-04-10 12:29 | 40.62486 | 3.18983 | 17903 ft | 343 kts | 327° |
| 2026-04-10 12:29 | 40.64514 | 3.17347 | 17650 ft | 341 kts | 327° |
| 2026-04-10 12:29 | 40.66537 | 3.15696 | 17424 ft | 340 kts | 327° |
| 2026-04-10 12:29 | 40.68533 | 3.14054 | 17199 ft | 338 kts | 327° |
| 2026-04-10 12:30 | 40.70544 | 3.12392 | 16971 ft | 337 kts | 327° |
| 2026-04-10 12:30 | 40.72506 | 3.10765 | 16672 ft | 336 kts | 327° |
| 2026-04-10 12:30 | 40.74495 | 3.09111 | 16323 ft | 334 kts | 327° |
| 2026-04-10 12:30 | 40.76451 | 3.07483 | 15971 ft | 331 kts | 327° |
| 2026-04-10 12:31 | 40.78419 | 3.05842 | 15609 ft | 329 kts | 327° |
| 2026-04-10 12:31 | 40.80334 | 3.04246 | 15241 ft | 327 kts | 327° |
| 2026-04-10 12:31 | 40.82257 | 3.02641 | 14898 ft | 324 kts | 326° |
| 2026-04-10 12:31 | 40.84168 | 3.01044 | 14533 ft | 322 kts | 326° |
| 2026-04-10 12:32 | 40.86045 | 2.99475 | 14172 ft | 320 kts | 326° |
| 2026-04-10 12:32 | 40.87921 | 2.97904 | 13797 ft | 317 kts | 326° |
| 2026-04-10 12:32 | 40.89800 | 2.96331 | 13429 ft | 315 kts | 326° |
| 2026-04-10 12:32 | 40.91627 | 2.94800 | 13071 ft | 313 kts | 326° |
| 2026-04-10 12:33 | 40.93480 | 2.93246 | 12715 ft | 311 kts | 326° |
| 2026-04-10 12:33 | 40.95287 | 2.91731 | 12350 ft | 308 kts | 326° |
| 2026-04-10 12:33 | 40.97093 | 2.90214 | 11990 ft | 306 kts | 326° |
| 2026-04-10 12:33 | 40.98892 | 2.88702 | 11635 ft | 304 kts | 326° |
| 2026-04-10 12:34 | 41.00678 | 2.87201 | 11271 ft | 301 kts | 326° |
| 2026-04-10 12:34 | 41.02443 | 2.85717 | 10915 ft | 299 kts | 326° |
| 2026-04-10 12:34 | 41.04190 | 2.84247 | 10585 ft | 297 kts | 326° |
| 2026-04-10 12:34 | 41.05920 | 2.82789 | 10236 ft | 295 kts | 326° |
| 2026-04-10 12:35 | 41.07635 | 2.81345 | 10099 ft | 283 kts | 326° |
| 2026-04-10 12:35 | 41.09257 | 2.79977 | 9926 ft | 273 kts | 326° |
| 2026-04-10 12:35 | 41.10859 | 2.78627 | 9562 ft | 270 kts | 326° |
| 2026-04-10 12:35 | 41.12461 | 2.77284 | 9256 ft | 267 kts | 326° |
| 2026-04-10 12:36 | 41.14026 | 2.75970 | 8978 ft | 265 kts | 326° |
| 2026-04-10 12:36 | 41.15575 | 2.74665 | 8661 ft | 264 kts | 326° |
| 2026-04-10 12:36 | 41.17117 | 2.73364 | 8321 ft | 262 kts | 326° |
| 2026-04-10 12:36 | 41.18659 | 2.72060 | 8004 ft | 259 kts | 326° |
| 2026-04-10 12:37 | 41.20179 | 2.70772 | 7695 ft | 257 kts | 326° |
| 2026-04-10 12:37 | 41.21677 | 2.69503 | 7411 ft | 255 kts | 326° |
| 2026-04-10 12:37 | 41.23184 | 2.68225 | 7119 ft | 254 kts | 326° |
| 2026-04-10 12:37 | 41.24651 | 2.66923 | 6812 ft | 252 kts | 320° |
| 2026-04-10 12:38 | 41.25842 | 2.65229 | 6491 ft | 250 kts | 304° |
| 2026-04-10 12:38 | 41.26702 | 2.63196 | 6218 ft | 249 kts | 297° |
| 2026-04-10 12:38 | 41.27464 | 2.61159 | 5934 ft | 248 kts | 296° |
| 2026-04-10 12:38 | 41.28228 | 2.59090 | 5616 ft | 247 kts | 296° |
| 2026-04-10 12:39 | 41.28993 | 2.57024 | 5322 ft | 246 kts | 296° |
| 2026-04-10 12:39 | 41.29748 | 2.54995 | 5065 ft | 245 kts | 296° |
| 2026-04-10 12:39 | 41.30499 | 2.52982 | 4786 ft | 244 kts | 295° |
| 2026-04-10 12:39 | 41.31263 | 2.50935 | 4481 ft | 247 kts | 295° |
| 2026-04-10 12:40 | 41.32059 | 2.48800 | 4101 ft | 262 kts | 295° |
| 2026-04-10 12:40 | 41.32869 | 2.46631 | 3712 ft | 263 kts | 295° |
| 2026-04-10 12:40 | 41.33689 | 2.44435 | 3311 ft | 264 kts | 295° |
| 2026-04-10 12:40 | 41.34499 | 2.42265 | 2927 ft | 264 kts | 295° |
| 2026-04-10 12:41 | 41.35319 | 2.40061 | 2528 ft | 264 kts | 295° |
| 2026-04-10 12:41 | 41.36122 | 2.37904 | 2262 ft | 258 kts | 295° |
| 2026-04-10 12:41 | 41.36900 | 2.35814 | 2231 ft | 243 kts | 296° |
| 2026-04-10 12:41 | 41.37624 | 2.33831 | 2225 ft | 227 kts | 290° |
| 2026-04-10 12:42 | 41.37817 | 2.31826 | 2207 ft | 209 kts | 257° |
| 2026-04-10 12:42 | 41.37389 | 2.30062 | 2235 ft | 197 kts | 246° |
| 2026-04-10 12:42 | 41.36822 | 2.28409 | 2246 ft | 195 kts | 243° |
| 2026-04-10 12:42 | 41.36247 | 2.26817 | 2334 ft | 186 kts | 244° |
| 2026-04-10 12:43 | 41.35709 | 2.25305 | 2300 ft | 170 kts | 244° |
| 2026-04-10 12:43 | 41.35221 | 2.23904 | 2137 ft | 164 kts | 244° |
| 2026-04-10 12:43 | 41.34747 | 2.22532 | 1924 ft | 162 kts | 244° |
| 2026-04-10 12:43 | 41.34285 | 2.21185 | 1703 ft | 157 kts | 244° |
| 2026-04-10 12:44 | 41.33836 | 2.19878 | 1493 ft | 150 kts | 244° |
| 2026-04-10 12:44 | 41.33411 | 2.18640 | 1330 ft | 145 kts | 244° |
| 2026-04-10 12:44 | 41.32994 | 2.17425 | 1135 ft | 143 kts | 243° |
| 2026-04-10 12:44 | 41.32579 | 2.16219 | 957 ft | 143 kts | 243° |
| 2026-04-10 12:45 | 41.32162 | 2.15003 | 768 ft | 144 kts | 243° |
| 2026-04-10 12:45 | 41.31752 | 2.13808 | 576 ft | 141 kts | 244° |
| 2026-04-10 12:45 | 41.31345 | 2.12602 | 395 ft | 140 kts | 244° |
| 2026-04-10 12:45 | 41.30940 | 2.11422 | 213 ft | 139 kts | 244° |
| 2026-04-10 12:46 | 41.30543 | 2.10277 | 32 ft | 136 kts | 243° |
| 2026-04-10 12:46 | 41.30188 | 2.09250 | 17 ft | 98 kts | 245° |
| 2026-04-10 12:46 | 41.29970 | 2.08611 | 21 ft | 60 kts | 246° |
| 2026-04-10 12:46 | 41.29813 | 2.08293 | 22 ft | 27 kts | 220° |
| 2026-04-10 12:47 | 41.29688 | 2.08177 | 22 ft | 19 kts | 216° |
| 2026-04-10 12:47 | 41.29612 | 2.08103 | 20 ft | 6 kts | 222° |
| 2026-04-10 12:47 | 41.29571 | 2.08073 | 19 ft | 8 kts | 170° |
| 2026-04-10 12:47 | 41.29509 | 2.08105 | 18 ft | 10 kts | 157° |
| 2026-04-10 12:48 | 41.29436 | 2.08148 | 18 ft | 11 kts | 155° |
| 2026-04-10 12:48 | 41.29358 | 2.08195 | 18 ft | 11 kts | 156° |
| 2026-04-10 12:48 | 41.29311 | 2.08169 | 18 ft | 7 kts | 208° |
| 2026-04-10 12:48 | 41.29271 | 2.08161 | 17 ft | 4 kts | 184° |
| 2026-04-10 12:49 | 41.29237 | 2.08159 | 16 ft | 4 kts | 182° |
| 2026-04-10 12:49 | 41.29227 | 2.08159 | 16 ft | 0 kts | 182° |